Time;durP1;ratioP1;P1;durP2;ratioP2;P2;SDS_P1;SDS_P2;PMS_P1;PMS_P2;Temp;Humidity;BMP_temperature;BMP_pressure;BME280_temperature;BME280_humidity;BME280_pressure;Samples;Min_cycle;Max_cycle;Signal;HPM_P1;HPM_P2
2022/05/22 00:01:50;;;;;;;5.55;3.65;;;;;;;;;;5052206;28;20044;-39
2022/05/22 00:04:15;;;;;;;5.38;4.03;;;;;;;;;;5051957;28;20501;-39
2022/05/22 00:06:41;;;;;;;8.63;4.32;;;;;;;;;;5051825;28;20025;-39
2022/05/22 00:09:06;;;;;;;13.07;3.95;;;;;;;;;;5051900;28;20029;-39
2022/05/22 00:11:32;;;;;;;5.68;3.55;;;;;;;;;;5052050;28;20021;-39
2022/05/22 00:13:57;;;;;;;6.15;4.00;;;;;;;;;;5051697;28;20064;-39
2022/05/22 00:16:40;;;;;;;8.38;3.67;;;;;;;;;;5051938;28;20374;-39
2022/05/22 00:19:09;;;;;;;4.70;3.60;;;;;;;;;;5052071;28;20041;-38
2022/05/22 00:21:37;;;;;;;8.65;3.35;;;;;;;;;;5051782;28;20074;-39
2022/05/22 00:24:02;;;;;;;5.57;3.75;;;;;;;;;;5051760;28;20111;-39
2022/05/22 00:26:28;;;;;;;7.88;3.38;;;;;;;;;;5051780;28;20478;-39
2022/05/22 00:28:54;;;;;;;8.57;4.43;;;;;;;;;;5051592;28;20033;-39
2022/05/22 00:31:19;;;;;;;6.60;3.42;;;;;;;;;;5050169;28;20009;-39
2022/05/22 00:33:44;;;;;;;7.07;3.83;;;;;;;;;;5051665;28;20029;-39
2022/05/22 00:36:10;;;;;;;3.80;3.40;;;;;;;;;;5050211;28;20079;-39
2022/05/22 00:38:35;;;;;;;5.10;3.95;;;;;;;;;;5049959;28;20091;-39
2022/05/22 00:41:01;;;;;;;4.97;3.95;;;;;;;;;;5051623;28;20023;-39
2022/05/22 00:43:27;;;;;;;3.45;3.15;;;;;;;;;;5051728;28;20467;-39
2022/05/22 00:45:52;;;;;;;4.75;3.60;;;;;;;;;;5051247;28;20024;-39
2022/05/22 00:48:18;;;;;;;3.78;3.33;;;;;;;;;;5050383;28;20056;-39
2022/05/22 00:50:43;;;;;;;5.43;3.53;;;;;;;;;;5049823;28;20025;-39
2022/05/22 00:53:09;;;;;;;4.30;3.90;;;;;;;;;;5049976;28;20048;-39
2022/05/22 00:55:35;;;;;;;5.93;3.75;;;;;;;;;;5051159;28;20063;-39
2022/05/22 00:58:04;;;;;;;8.57;3.80;;;;;;;;;;5049764;28;20062;-39
2022/05/22 01:00:35;;;;;;;3.55;3.17;;;;;;;;;;5049971;28;20020;-39
2022/05/22 01:05:48;;;;;;;3.33;3.03;;;;;;;;;;5051065;28;20043;-39
2022/05/22 01:08:13;;;;;;;4.72;3.58;;;;;;;;;;5049779;28;20025;-39
2022/05/22 01:10:50;;;;;;;7.63;3.70;;;;;;;;;;5049731;28;20472;-39
2022/05/22 01:13:18;;;;;;;4.88;3.38;;;;;;;;;;5049514;28;20072;-39
2022/05/22 01:15:44;;;;;;;5.55;3.50;;;;;;;;;;5049719;28;20036;-39
2022/05/22 01:18:11;;;;;;;6.30;4.03;;;;;;;;;;5049573;28;20033;-39
2022/05/22 01:20:37;;;;;;;5.88;3.40;;;;;;;;;;5049628;28;20020;-39
2022/05/22 01:23:03;;;;;;;6.85;3.30;;;;;;;;;;5049704;28;20033;-41
2022/05/22 01:25:28;;;;;;;4.50;3.40;;;;;;;;;;5050850;28;20100;-39
2022/05/22 01:27:54;;;;;;;3.55;2.92;;;;;;;;;;5049620;28;20658;-39
2022/05/22 01:30:25;;;;;;;5.30;3.90;;;;;;;;;;5033618;28;20025;-39
2022/05/22 01:32:57;;;;;;;8.43;3.75;;;;;;;;;;5049513;28;20067;-39
2022/05/22 01:35:25;;;;;;;6.80;3.40;;;;;;;;;;5049929;28;20064;-39
2022/05/22 01:37:52;;;;;;;4.93;3.38;;;;;;;;;;5049377;28;20037;-39
2022/05/22 01:40:19;;;;;;;4.53;3.90;;;;;;;;;;5049526;28;20044;-39
2022/05/22 01:42:49;;;;;;;4.18;3.53;;;;;;;;;;5049257;28;20021;-39
2022/05/22 01:45:19;;;;;;;6.53;3.38;;;;;;;;;;5050760;28;20029;-39
2022/05/22 01:47:45;;;;;;;4.63;3.70;;;;;;;;;;5049330;28;20040;-39
2022/05/22 01:50:11;;;;;;;7.53;3.67;;;;;;;;;;5049505;28;20036;-39
2022/05/22 01:52:37;;;;;;;4.00;3.50;;;;;;;;;;5049255;28;20099;-39
2022/05/22 01:55:05;;;;;;;5.03;3.95;;;;;;;;;;5049382;28;20029;-39
2022/05/22 01:57:30;;;;;;;4.80;4.18;;;;;;;;;;5049277;28;20037;-39
2022/05/22 01:59:57;;;;;;;5.60;3.47;;;;;;;;;;5052374;28;20116;-39
2022/05/22 02:02:24;;;;;;;7.25;4.28;;;;;;;;;;5053091;28;20033;-40
2022/05/22 02:04:51;;;;;;;7.15;3.85;;;;;;;;;;5052932;28;20123;-39
2022/05/22 02:10:05;;;;;;;9.52;3.83;;;;;;;;;;5052879;28;20029;-39
2022/05/22 02:12:31;;;;;;;5.38;3.60;;;;;;;;;;5053941;28;20544;-40
2022/05/22 02:14:58;;;;;;;4.22;3.83;;;;;;;;;;5052792;28;20123;-39
2022/05/22 02:17:24;;;;;;;7.13;3.78;;;;;;;;;;5052608;28;20129;-39
2022/05/22 02:19:53;;;;;;;5.78;4.10;;;;;;;;;;5052671;28;20043;-38
2022/05/22 02:22:53;;;;;;;4.45;3.30;;;;;;;;;;5053413;28;20478;-39
2022/05/22 02:25:20;;;;;;;5.32;3.97;;;;;;;;;;5052568;28;20025;-41
2022/05/22 02:27:54;;;;;;;4.55;3.90;;;;;;;;;;5053799;28;20021;-39
2022/05/22 02:30:21;;;;;;;3.90;3.13;;;;;;;;;;5052456;28;20029;-39
2022/05/22 02:32:47;;;;;;;4.28;3.40;;;;;;;;;;5052675;28;20100;-39
2022/05/22 02:35:13;;;;;;;5.43;3.85;;;;;;;;;;5053648;28;20494;-39
2022/05/22 02:37:57;;;;;;;4.82;3.90;;;;;;;;;;5052161;28;20021;-39
2022/05/22 02:40:39;;;;;;;7.47;3.53;;;;;;;;;;5052147;28;20028;-39
2022/05/22 02:43:04;;;;;;;5.13;3.70;;;;;;;;;;5053598;28;20036;-39
2022/05/22 02:45:31;;;;;;;4.53;3.63;;;;;;;;;;5053541;28;20013;-39
2022/05/22 02:48:03;;;;;;;4.10;3.55;;;;;;;;;;5052209;28;20037;-39
2022/05/22 02:50:29;;;;;;;5.07;4.13;;;;;;;;;;5052042;28;20047;-39
2022/05/22 02:53:00;;;;;;;5.72;4.05;;;;;;;;;;5051929;28;20477;-38
2022/05/22 02:55:35;;;;;;;9.27;3.90;;;;;;;;;;5051831;28;20044;-39
2022/05/22 02:58:01;;;;;;;3.90;3.47;;;;;;;;;;5051771;28;20395;-40
2022/05/22 03:00:30;;;;;;;6.22;4.22;;;;;;;;;;5051948;28;20112;-39
2022/05/22 03:02:57;;;;;;;5.57;4.00;;;;;;;;;;5051822;28;20037;-39
2022/05/22 03:05:26;;;;;;;3.78;3.30;;;;;;;;;;5051799;28;20214;-39
2022/05/22 03:07:52;;;;;;;5.07;3.85;;;;;;;;;;5051727;28;20033;-39
2022/05/22 03:10:28;;;;;;;3.65;3.28;;;;;;;;;;5050828;28;20489;-39
2022/05/22 03:12:54;;;;;;;5.05;3.22;;;;;;;;;;5052742;28;20108;-38
2022/05/22 03:15:26;;;;;;;12.07;3.72;;;;;;;;;;5051731;28;20146;-39
2022/05/22 03:17:52;;;;;;;5.00;3.60;;;;;;;;;;5051543;28;20555;-39
2022/05/22 03:20:18;;;;;;;4.78;3.55;;;;;;;;;;5051524;28;20024;-39
2022/05/22 03:22:43;;;;;;;4.15;3.75;;;;;;;;;;5051482;28;20033;-39
2022/05/22 03:25:09;;;;;;;4.35;3.50;;;;;;;;;;5051428;28;20021;-39
2022/05/22 03:27:35;;;;;;;5.57;3.65;;;;;;;;;;5051240;28;20036;-39
2022/05/22 03:30:00;;;;;;;5.95;3.85;;;;;;;;;;5051484;28;20375;-39
2022/05/22 03:32:26;;;;;;;3.92;2.90;;;;;;;;;;5051189;28;20475;-39
2022/05/22 03:34:52;;;;;;;7.53;3.95;;;;;;;;;;5051217;28;20062;-38
2022/05/22 03:37:17;;;;;;;9.13;3.50;;;;;;;;;;5051158;28;20044;-39
2022/05/22 03:39:43;;;;;;;4.13;3.45;;;;;;;;;;5051001;28;20021;-39
2022/05/22 03:42:10;;;;;;;5.97;4.43;;;;;;;;;;5052441;28;20446;-39
2022/05/22 03:44:36;;;;;;;4.18;3.78;;;;;;;;;;5050944;28;20486;-39
2022/05/22 03:47:02;;;;;;;5.13;4.05;;;;;;;;;;5050996;28;20036;-39
2022/05/22 03:49:37;;;;;;;6.03;3.88;;;;;;;;;;5050954;28;20426;-39
2022/05/22 03:52:03;;;;;;;4.68;3.40;;;;;;;;;;5034298;28;20119;-39
2022/05/22 03:54:29;;;;;;;9.88;4.72;;;;;;;;;;5050905;28;20021;-38
2022/05/22 03:56:57;;;;;;;7.53;4.10;;;;;;;;;;5050725;28;20505;-39
2022/05/22 03:59:27;;;;;;;3.67;3.30;;;;;;;;;;5050902;28;20111;-42
2022/05/22 04:01:53;;;;;;;4.20;3.65;;;;;;;;;;5050473;28;20040;-39
2022/05/22 04:04:19;;;;;;;6.80;4.15;;;;;;;;;;5050783;28;20029;-39
2022/05/22 04:06:45;;;;;;;8.07;4.00;;;;;;;;;;5050719;28;20119;-39
2022/05/22 04:09:16;;;;;;;7.13;4.03;;;;;;;;;;5050544;28;20025;-40
2022/05/22 04:11:57;;;;;;;8.35;3.92;;;;;;;;;;5050574;28;20483;-41
2022/05/22 04:14:23;;;;;;;5.15;3.80;;;;;;;;;;5050419;28;20045;-38
2022/05/22 04:16:57;;;;;;;3.92;3.22;;;;;;;;;;5050454;28;20029;-39
2022/05/22 04:19:22;;;;;;;4.85;3.25;;;;;;;;;;5051757;28;20265;-39
2022/05/22 04:21:48;;;;;;;3.72;3.30;;;;;;;;;;5050096;28;20104;-39
2022/05/22 04:27:08;;;;;;;4.15;3.75;;;;;;;;;;5051738;28;20037;-39
2022/05/22 04:29:35;;;;;;;8.95;3.67;;;;;;;;;;5050103;28;20356;-39
2022/05/22 04:32:01;;;;;;;4.18;3.65;;;;;;;;;;5050300;28;20038;-39
2022/05/22 04:34:37;;;;;;;6.53;3.78;;;;;;;;;;5050135;28;20021;-39
2022/05/22 04:37:07;;;;;;;4.88;3.33;;;;;;;;;;5050095;28;20457;-39
2022/05/22 04:39:41;;;;;;;4.80;3.70;;;;;;;;;;5050022;28;20439;-39
2022/05/22 04:42:06;;;;;;;5.63;4.47;;;;;;;;;;5050137;28;20116;-39
2022/05/22 04:44:32;;;;;;;4.03;2.83;;;;;;;;;;5049977;28;20116;-39
2022/05/22 04:47:16;;;;;;;5.68;3.13;;;;;;;;;;5051422;28;20044;-39
2022/05/22 04:49:42;;;;;;;7.10;3.92;;;;;;;;;;5049899;28;20025;-39
2022/05/22 04:52:08;;;;;;;4.70;3.53;;;;;;;;;;5049898;28;20020;-39
2022/05/22 04:54:33;;;;;;;7.72;3.47;;;;;;;;;;5051528;28;20029;-39
2022/05/22 04:57:01;;;;;;;4.45;3.72;;;;;;;;;;5049767;28;20025;-39
2022/05/22 04:59:27;;;;;;;4.13;3.25;;;;;;;;;;5049906;28;20033;-39
2022/05/22 05:01:52;;;;;;;5.30;3.35;;;;;;;;;;5049754;28;20017;-39
2022/05/22 05:04:54;;;;;;;10.02;4.03;;;;;;;;;;5050533;28;20033;-39
2022/05/22 05:07:31;;;;;;;7.20;3.17;;;;;;;;;;5051256;28;20052;-40
2022/05/22 05:10:07;;;;;;;6.80;3.45;;;;;;;;;;5049753;28;20086;-39
2022/05/22 05:12:56;;;;;;;5.15;3.10;;;;;;;;;;5050373;28;20075;-39
2022/05/22 05:15:25;;;;;;;4.45;3.35;;;;;;;;;;5049772;28;20124;-39
2022/05/22 05:18:06;;;;;;;6.30;3.67;;;;;;;;;;5049708;28;20033;-39
2022/05/22 05:20:34;;;;;;;4.30;3.50;;;;;;;;;;5033283;28;20171;-39
2022/05/22 05:23:05;;;;;;;5.45;3.25;;;;;;;;;;5049757;28;20048;-39
2022/05/22 05:25:41;;;;;;;5.53;3.55;;;;;;;;;;5049601;28;20025;-39
2022/05/22 05:28:06;;;;;;;3.97;2.92;;;;;;;;;;5049754;28;20043;-38
2022/05/22 05:30:32;;;;;;;9.35;3.63;;;;;;;;;;5049593;28;20025;-39
2022/05/22 05:32:57;;;;;;;5.57;2.95;;;;;;;;;;5050040;28;20036;-39
2022/05/22 05:35:42;;;;;;;6.53;3.95;;;;;;;;;;5055018;28;20051;-39
2022/05/22 05:38:10;;;;;;;6.72;3.55;;;;;;;;;;5053482;28;20033;-38
2022/05/22 05:40:38;;;;;;;3.45;3.15;;;;;;;;;;5053194;28;20013;-38
2022/05/22 05:43:04;;;;;;;5.05;3.03;;;;;;;;;;5054991;28;20431;-39
2022/05/22 05:45:31;;;;;;;3.95;3.17;;;;;;;;;;5053460;28;20514;-38
2022/05/22 05:47:58;;;;;;;5.72;3.30;;;;;;;;;;5053291;28;20115;-39
2022/05/22 05:50:42;;;;;;;5.18;2.83;;;;;;;;;;5053149;28;20044;-39
2022/05/22 05:53:18;;;;;;;4.57;3.03;;;;;;;;;;5054599;28;20116;-39
2022/05/22 05:55:44;;;;;;;6.07;3.03;;;;;;;;;;5054463;28;20108;-39
2022/05/22 05:58:24;;;;;;;11.52;3.42;;;;;;;;;;5054498;28;20037;-39
2022/05/22 06:00:56;;;;;;;10.82;3.30;;;;;;;;;;5052933;28;20482;-38
2022/05/22 06:03:22;;;;;;;6.03;3.47;;;;;;;;;;5054586;28;20033;-39
2022/05/22 06:05:54;;;;;;;3.78;2.78;;;;;;;;;;5052924;28;20430;-39
2022/05/22 06:08:31;;;;;;;3.33;3.03;;;;;;;;;;5052999;28;20116;-39
2022/05/22 06:11:17;;;;;;;13.23;3.53;;;;;;;;;;5052825;28;20114;-39
2022/05/22 06:13:42;;;;;;;6.45;3.33;;;;;;;;;;5052678;28;20181;-39
2022/05/22 06:16:08;;;;;;;3.85;2.60;;;;;;;;;;5052773;28;20048;-38
2022/05/22 06:18:43;;;;;;;3.08;2.33;;;;;;;;;;5052686;28;20072;-39
2022/05/22 06:21:12;;;;;;;5.03;3.30;;;;;;;;;;5052676;28;20094;-40
2022/05/22 06:23:41;;;;;;;3.53;2.78;;;;;;;;;;5052548;28;20029;-38
2022/05/22 06:26:13;;;;;;;3.03;2.70;;;;;;;;;;5054093;28;20108;-39
2022/05/22 06:29:02;;;;;;;3.97;2.80;;;;;;;;;;5056137;28;20029;-39
2022/05/22 06:31:57;;;;;;;7.10;3.05;;;;;;;;;;5053769;28;20479;-39
2022/05/22 06:34:47;;;;;;;6.65;2.90;;;;;;;;;;5053477;28;20029;-39
2022/05/22 06:37:36;;;;;;;3.83;2.35;;;;;;;;;;5055501;28;20052;-39
2022/05/22 06:40:30;;;;;;;15.35;3.50;;;;;;;;;;5053493;28;20049;-39
2022/05/22 06:43:14;;;;;;;6.60;2.85;;;;;;;;;;5053949;28;20510;-38
2022/05/22 06:46:09;;;;;;;3.70;2.28;;;;;;;;;;5068984;28;20059;-39
2022/05/22 06:48:54;;;;;;;2.85;2.45;;;;;;;;;;5053639;28;20083;-39
2022/05/22 06:51:47;;;;;;;4.15;2.55;;;;;;;;;;5059791;28;20029;-39
2022/05/22 06:54:31;;;;;;;8.63;3.00;;;;;;;;;;5053810;28;20175;-39
2022/05/22 06:57:20;;;;;;;3.58;2.40;;;;;;;;;;5053603;28;20055;-39
2022/05/22 07:00:18;;;;;;;2.88;2.40;;;;;;;;;;5051894;28;20454;-39
2022/05/22 07:02:47;;;;;;;3.35;2.20;;;;;;;;;;5053225;28;20036;-39
2022/05/22 07:05:42;;;;;;;3.10;2.50;;;;;;;;;;5051919;28;20025;-38
2022/05/22 07:08:27;;;;;;;4.50;2.50;;;;;;;;;;5053462;28;20123;-39
2022/05/22 07:11:40;;;;;;;4.40;2.97;;;;;;;;;;5070619;28;20443;-39
2022/05/22 07:14:24;;;;;;;2.83;2.33;;;;;;;;;;5070478;28;20427;-39
2022/05/22 07:17:09;;;;;;;2.83;2.13;;;;;;;;;;5057222;28;20449;-38
2022/05/22 07:19:58;;;;;;;5.50;2.97;;;;;;;;;;5051474;28;20063;-38
2022/05/22 07:22:42;;;;;;;2.83;2.30;;;;;;;;;;5052846;28;20074;-39
2022/05/22 07:25:27;;;;;;;4.47;2.90;;;;;;;;;;5053015;28;20134;-39
2022/05/22 07:28:00;;;;;;;4.05;2.13;;;;;;;;;;5052707;28;20462;-39
2022/05/22 07:30:34;;;;;;;4.15;2.70;;;;;;;;;;5052538;28;20028;-39
2022/05/22 07:33:36;;;;;;;2.97;2.13;;;;;;;;;;5051291;28;20033;-39
2022/05/22 07:36:40;;;;;;;2.85;2.10;;;;;;;;;;5069905;28;20033;-39
2022/05/22 07:39:35;;;;;;;3.13;2.60;;;;;;;;;;5069938;28;20033;-39
2022/05/22 07:42:12;;;;;;;2.65;2.17;;;;;;;;;;5056931;28;20071;-39
2022/05/22 07:45:06;;;;;;;3.90;2.22;;;;;;;;;;5051207;28;20033;-39
2022/05/22 07:47:49;;;;;;;2.83;2.15;;;;;;;;;;5052226;28;20025;-39
2022/05/22 07:50:26;;;;;;;4.30;2.10;;;;;;;;;;5052639;28;20067;-39
2022/05/22 07:52:59;;;;;;;3.97;2.45;;;;;;;;;;5052172;28;20028;-39
2022/05/22 07:55:39;;;;;;;3.60;1.92;;;;;;;;;;5052093;28;20113;-39
2022/05/22 07:58:33;;;;;;;2.40;1.92;;;;;;;;;;5052477;28;20364;-39
2022/05/22 08:01:32;;;;;;;4.63;2.38;;;;;;;;;;5056193;28;20073;-39
2022/05/22 08:04:04;;;;;;;6.57;2.10;;;;;;;;;;5052219;28;20048;-39
2022/05/22 08:06:49;;;;;;;2.97;2.05;;;;;;;;;;5052036;28;20040;-39
2022/05/22 08:09:41;;;;;;;1.77;1.63;;;;;;;;;;5051145;28;20082;-46
2022/05/22 08:12:10;;;;;;;4.22;1.80;;;;;;;;;;5051812;28;20025;-39
2022/05/22 08:14:36;;;;;;;3.45;2.38;;;;;;;;;;5050442;28;20055;-39
2022/05/22 08:17:03;;;;;;;2.67;2.05;;;;;;;;;;5050469;28;20037;-39
2022/05/22 08:19:28;;;;;;;3.42;2.30;;;;;;;;;;5050424;28;20513;-39
2022/05/22 08:22:11;;;;;;;3.92;2.20;;;;;;;;;;5050445;28;20041;-39
2022/05/22 08:24:55;;;;;;;2.80;2.13;;;;;;;;;;5051696;28;20521;-39
2022/05/22 08:27:23;;;;;;;2.17;1.90;;;;;;;;;;5050366;28;20070;-39
2022/05/22 08:29:49;;;;;;;2.75;2.55;;;;;;;;;;5051604;28;20013;-39
2022/05/22 08:32:15;;;;;;;2.05;1.73;;;;;;;;;;5051483;28;20039;-38
2022/05/22 08:34:41;;;;;;;4.57;1.98;;;;;;;;;;5051431;28;20134;-38
2022/05/22 08:37:06;;;;;;;3.50;1.80;;;;;;;;;;5051527;28;20434;-38
2022/05/22 08:39:32;;;;;;;3.22;1.70;;;;;;;;;;5051344;28;20069;-39
2022/05/22 08:41:58;;;;;;;1.75;1.50;;;;;;;;;;5051634;28;20029;-38
2022/05/22 08:44:31;;;;;;;2.00;1.70;;;;;;;;;;5050159;28;20364;-39
2022/05/22 08:47:01;;;;;;;1.60;1.35;;;;;;;;;;5051223;28;20145;-39
2022/05/22 08:49:31;;;;;;;2.42;1.70;;;;;;;;;;5050034;28;20025;-39
2022/05/22 08:52:00;;;;;;;3.15;2.20;;;;;;;;;;5051325;28;20383;-39
2022/05/22 08:54:30;;;;;;;3.17;1.85;;;;;;;;;;5051313;28;20021;-38
2022/05/22 08:59:46;;;;;;;5.18;1.70;;;;;;;;;;5051200;28;20116;-39
2022/05/22 09:02:21;;;;;;;3.60;2.05;;;;;;;;;;5051153;28;20502;-39
2022/05/22 09:04:52;;;;;;;4.10;1.60;;;;;;;;;;5049869;28;20029;-39
2022/05/22 09:07:18;;;;;;;2.97;1.50;;;;;;;;;;5051320;28;20056;-39
2022/05/22 09:09:44;;;;;;;2.33;1.80;;;;;;;;;;5054573;28;20471;-39
2022/05/22 09:12:14;;;;;;;3.25;1.58;;;;;;;;;;5055543;28;20033;-39
2022/05/22 09:14:47;;;;;;;2.67;1.48;;;;;;;;;;5053927;28;20477;-39
2022/05/22 09:17:17;;;;;;;9.38;1.88;;;;;;;;;;5055118;28;20152;-39
2022/05/22 09:19:43;;;;;;;1.90;1.30;;;;;;;;;;5055440;28;20062;-39
2022/05/22 09:22:18;;;;;;;3.78;2.17;;;;;;;;;;5055276;28;20092;-38
2022/05/22 09:24:53;;;;;;;3.28;1.50;;;;;;;;;;5054986;28;20115;-38
2022/05/22 09:27:39;;;;;;;1.75;1.65;;;;;;;;;;5055118;28;20088;-39
2022/05/22 09:30:13;;;;;;;1.58;1.35;;;;;;;;;;5054092;28;20033;-39
2022/05/22 09:32:57;;;;;;;6.60;1.80;;;;;;;;;;5055062;28;20025;-39
2022/05/22 09:35:29;;;;;;;5.63;2.10;;;;;;;;;;5054785;28;20123;-39
2022/05/22 09:38:05;;;;;;;3.42;1.58;;;;;;;;;;5054659;28;20041;-39
2022/05/22 09:40:44;;;;;;;2.00;1.75;;;;;;;;;;5053495;28;20061;-39
2022/05/22 09:43:25;;;;;;;6.68;1.92;;;;;;;;;;5054711;28;20128;-39
2022/05/22 09:46:09;;;;;;;1.90;1.60;;;;;;;;;;5054567;28;20032;-39
2022/05/22 09:48:44;;;;;;;2.55;2.15;;;;;;;;;;5054682;28;20075;-38
2022/05/22 09:51:23;;;;;;;3.63;1.40;;;;;;;;;;5054551;28;20502;-39
2022/05/22 09:54:04;;;;;;;2.22;1.70;;;;;;;;;;5054332;28;20056;-39
2022/05/22 09:56:45;;;;;;;2.50;1.77;;;;;;;;;;5054763;28;20037;-40
2022/05/22 09:59:30;;;;;;;3.10;2.03;;;;;;;;;;5054434;28;20040;-39
2022/05/22 10:01:59;;;;;;;2.22;1.98;;;;;;;;;;5054262;28;20021;-39
2022/05/22 10:04:33;;;;;;;3.15;1.90;;;;;;;;;;5054368;28;20028;-39
2022/05/22 10:07:04;;;;;;;2.85;2.00;;;;;;;;;;5054481;28;20029;-39
2022/05/22 10:09:30;;;;;;;3.25;1.80;;;;;;;;;;5054250;28;20080;-39
2022/05/22 10:12:09;;;;;;;2.35;1.85;;;;;;;;;;5054064;28;20032;-39
2022/05/22 10:14:44;;;;;;;2.15;1.80;;;;;;;;;;5054096;28;20060;-39
2022/05/22 10:17:28;;;;;;;2.40;1.98;;;;;;;;;;5054020;28;20487;-40
2022/05/22 10:20:05;;;;;;;1.67;1.55;;;;;;;;;;5053504;28;20506;-39
2022/05/22 10:22:57;;;;;;;11.88;2.33;;;;;;;;;;5053992;28;20029;-39
2022/05/22 10:25:45;;;;;;;1.85;1.73;;;;;;;;;;5053422;28;20098;-40
2022/05/22 10:28:22;;;;;;;3.50;1.98;;;;;;;;;;5053934;28;20438;-39
2022/05/22 10:30:53;;;;;;;1.65;1.40;;;;;;;;;;5053865;28;20035;-39
2022/05/22 10:33:25;;;;;;;2.22;1.85;;;;;;;;;;5053835;28;20029;-39
2022/05/22 10:35:54;;;;;;;4.97;2.40;;;;;;;;;;5054026;28;20483;-39
2022/05/22 10:38:21;;;;;;;3.40;1.67;;;;;;;;;;5053958;28;20430;-39
2022/05/22 10:43:38;;;;;;;7.80;2.20;;;;;;;;;;5053582;28;20029;-39
2022/05/22 10:46:04;;;;;;;1.92;1.63;;;;;;;;;;5053544;28;20039;-39
2022/05/22 10:48:31;;;;;;;2.95;2.00;;;;;;;;;;5053856;28;20111;-39
2022/05/22 10:51:05;;;;;;;3.35;1.70;;;;;;;;;;5052036;28;20066;-39
2022/05/22 10:53:38;;;;;;;2.80;1.83;;;;;;;;;;5053443;28;20037;-39
2022/05/22 10:56:14;;;;;;;4.18;2.22;;;;;;;;;;5053405;28;20644;-39
2022/05/22 10:58:48;;;;;;;2.00;1.83;;;;;;;;;;5053600;28;20102;-39
2022/05/22 11:01:19;;;;;;;2.33;1.52;;;;;;;;;;5051921;28;20124;-39
2022/05/22 11:03:47;;;;;;;2.20;1.73;;;;;;;;;;5052051;28;20079;-39
2022/05/22 11:06:17;;;;;;;2.50;2.10;;;;;;;;;;5053134;28;20023;-39
2022/05/22 11:09:04;;;;;;;2.05;1.38;;;;;;;;;;5053001;28;20033;-39
2022/05/22 11:11:32;;;;;;;3.20;1.92;;;;;;;;;;5052826;28;20033;-39
2022/05/22 11:14:13;;;;;;;4.88;1.95;;;;;;;;;;5052834;28;20056;-39
2022/05/22 11:16:40;;;;;;;2.53;1.80;;;;;;;;;;5052930;28;20039;-39
2022/05/22 11:19:12;;;;;;;2.67;1.80;;;;;;;;;;5052935;28;20029;-39
2022/05/22 11:21:50;;;;;;;2.13;1.90;;;;;;;;;;5052860;28;20036;-39
2022/05/22 11:24:16;;;;;;;4.55;2.00;;;;;;;;;;5053098;28;20111;-39
2022/05/22 11:27:05;;;;;;;2.28;1.88;;;;;;;;;;5052703;28;20104;-39
2022/05/22 11:29:50;;;;;;;4.93;2.20;;;;;;;;;;5052607;28;20035;-39
2022/05/22 11:32:28;;;;;;;3.65;2.20;;;;;;;;;;5052118;28;20101;-39
2022/05/22 11:34:53;;;;;;;2.45;2.03;;;;;;;;;;5052861;28;20029;-40
2022/05/22 11:37:34;;;;;;;3.83;2.10;;;;;;;;;;5052487;28;20489;-39
2022/05/22 11:40:12;;;;;;;2.65;2.10;;;;;;;;;;5052736;28;20029;-40
2022/05/22 11:42:38;;;;;;;4.28;2.25;;;;;;;;;;5052407;28;20036;-40
2022/05/22 11:45:19;;;;;;;2.20;2.00;;;;;;;;;;5052430;28;20029;-43
2022/05/22 11:47:58;;;;;;;4.15;2.50;;;;;;;;;;5052538;28;20045;-39
2022/05/22 11:50:42;;;;;;;2.90;2.25;;;;;;;;;;5052183;28;20486;-39
2022/05/22 11:53:15;;;;;;;4.30;2.10;;;;;;;;;;5052288;28;20029;-39
2022/05/22 11:55:43;;;;;;;3.03;2.00;;;;;;;;;;5052426;28;20113;-39
2022/05/22 11:58:28;;;;;;;2.45;2.25;;;;;;;;;;5052307;28;20116;-39
2022/05/22 12:01:11;;;;;;;5.72;2.20;;;;;;;;;;5051910;28;20025;-39
2022/05/22 12:03:46;;;;;;;4.55;2.38;;;;;;;;;;5050923;28;20427;-39
2022/05/22 12:06:11;;;;;;;2.95;2.08;;;;;;;;;;5051987;28;20029;-39
2022/05/22 12:08:56;;;;;;;9.55;2.75;;;;;;;;;;5052302;28;20597;-39
2022/05/22 12:11:31;;;;;;;5.97;2.58;;;;;;;;;;5051817;28;20391;-39
2022/05/22 12:14:16;;;;;;;3.63;2.50;;;;;;;;;;5051835;28;20459;-39
2022/05/22 12:16:57;;;;;;;4.20;2.00;;;;;;;;;;5051818;28;20095;-39
2022/05/22 12:19:29;;;;;;;3.35;1.92;;;;;;;;;;5051667;28;20029;-39
2022/05/22 12:22:05;;;;;;;2.30;1.95;;;;;;;;;;5051967;28;20049;-39
2022/05/22 12:24:46;;;;;;;4.65;2.20;;;;;;;;;;5050360;28;20039;-39
2022/05/22 12:27:15;;;;;;;6.45;2.35;;;;;;;;;;5050362;28;20479;-39
2022/05/22 12:29:48;;;;;;;9.55;2.45;;;;;;;;;;5051800;28;20028;-40
2022/05/22 12:32:20;;;;;;;3.25;2.65;;;;;;;;;;5051708;28;20118;-39
2022/05/22 12:34:48;;;;;;;3.38;2.22;;;;;;;;;;5051472;28;20028;-39
2022/05/22 12:37:35;;;;;;;2.30;1.98;;;;;;;;;;5051548;28;20475;-39
2022/05/22 12:40:10;;;;;;;3.90;2.28;;;;;;;;;;5051323;28;20045;-40
2022/05/22 12:42:37;;;;;;;3.47;2.75;;;;;;;;;;5051231;28;20028;-40
2022/05/22 12:45:06;;;;;;;3.25;1.95;;;;;;;;;;5051428;28;20471;-39
2022/05/22 12:47:41;;;;;;;7.78;2.65;;;;;;;;;;5051359;28;20040;-39
2022/05/22 12:50:08;;;;;;;2.83;2.28;;;;;;;;;;5051335;28;20041;-39
2022/05/22 12:52:33;;;;;;;4.05;2.40;;;;;;;;;;5050127;28;20057;-40
2022/05/22 12:55:00;;;;;;;10.60;3.30;;;;;;;;;;5051342;28;20122;-39
2022/05/22 12:57:25;;;;;;;3.30;2.30;;;;;;;;;;5051251;28;20039;-39
2022/05/22 12:59:52;;;;;;;6.20;2.88;;;;;;;;;;5051304;28;20021;-39
2022/05/22 13:02:32;;;;;;;3.38;2.28;;;;;;;;;;5051463;28;20031;-39
2022/05/22 13:04:58;;;;;;;3.05;2.40;;;;;;;;;;5051051;28;20025;-39
2022/05/22 13:07:32;;;;;;;4.13;2.58;;;;;;;;;;5051205;28;20021;-39
2022/05/22 13:09:58;;;;;;;3.28;2.80;;;;;;;;;;5051248;28;20442;-39
2022/05/22 13:12:24;;;;;;;3.60;2.53;;;;;;;;;;5051245;28;20047;-39
2022/05/22 13:14:54;;;;;;;3.53;2.90;;;;;;;;;;5051051;28;20120;-39
2022/05/22 13:17:46;;;;;;;3.33;2.47;;;;;;;;;;5050911;28;20033;-38
2022/05/22 13:20:44;;;;;;;7.13;2.60;;;;;;;;;;5050524;28;20041;-40
2022/05/22 13:23:30;;;;;;;6.22;2.88;;;;;;;;;;5049501;28;20048;-40
2022/05/22 13:26:00;;;;;;;4.07;2.25;;;;;;;;;;5051037;28;20028;-39
2022/05/22 13:28:27;;;;;;;4.15;2.90;;;;;;;;;;5050907;28;20040;-39
2022/05/22 13:30:58;;;;;;;3.97;2.42;;;;;;;;;;5050829;28;20027;-39
2022/05/22 13:33:24;;;;;;;6.82;3.08;;;;;;;;;;5050910;28;20033;-39
2022/05/22 13:36:11;;;;;;;6.45;2.20;;;;;;;;;;5050770;28;20575;-41
2022/05/22 13:38:38;;;;;;;4.93;2.00;;;;;;;;;;5050776;28;20047;-39
2022/05/22 13:41:17;;;;;;;3.50;2.90;;;;;;;;;;5050741;28;20028;-39
2022/05/22 13:44:01;;;;;;;3.35;2.45;;;;;;;;;;5049412;28;20160;-39
2022/05/22 13:46:45;;;;;;;7.90;2.72;;;;;;;;;;5050892;28;20110;-39
2022/05/22 13:49:24;;;;;;;4.40;2.22;;;;;;;;;;5050788;28;20036;-40
2022/05/22 13:54:50;;;;;;;2.60;2.00;;;;;;;;;;5051926;28;20032;-39
2022/05/22 13:57:24;;;;;;;4.22;2.47;;;;;;;;;;5054488;28;20120;-39
2022/05/22 13:59:54;;;;;;;3.72;2.97;;;;;;;;;;5054331;28;20108;-39
2022/05/22 14:02:21;;;;;;;4.13;2.50;;;;;;;;;;5054441;28;20086;-39
2022/05/22 14:04:49;;;;;;;4.75;2.40;;;;;;;;;;5054325;28;20029;-40
2022/05/22 14:07:20;;;;;;;8.15;2.53;;;;;;;;;;5054240;28;20029;-40
2022/05/22 14:09:45;;;;;;;2.72;2.47;;;;;;;;;;5054338;28;20447;-39
2022/05/22 14:12:12;;;;;;;3.60;2.63;;;;;;;;;;5054169;28;20025;-39
2022/05/22 14:14:38;;;;;;;3.88;2.17;;;;;;;;;;5054161;28;20049;-40
2022/05/22 14:17:05;;;;;;;2.80;2.42;;;;;;;;;;5054011;28;20033;-39
2022/05/22 14:19:36;;;;;;;2.03;1.67;;;;;;;;;;5053928;28;20403;-39
2022/05/22 14:22:13;;;;;;;4.30;2.70;;;;;;;;;;5053985;28;20043;-40
2022/05/22 14:24:52;;;;;;;5.15;2.88;;;;;;;;;;5054326;28;20040;-39
2022/05/22 14:27:49;;;;;;;5.18;2.40;;;;;;;;;;5053958;28;20047;-39
2022/05/22 14:30:24;;;;;;;4.15;2.50;;;;;;;;;;5052393;28;20041;-39
2022/05/22 14:32:49;;;;;;;6.32;2.65;;;;;;;;;;5053803;28;20396;-39
2022/05/22 14:35:18;;;;;;;3.03;2.30;;;;;;;;;;5054079;28;20017;-39
2022/05/22 14:37:44;;;;;;;4.63;2.03;;;;;;;;;;5053618;28;20372;-40
2022/05/22 14:40:13;;;;;;;4.55;2.58;;;;;;;;;;5053968;28;20024;-39
2022/05/22 14:42:43;;;;;;;6.00;2.58;;;;;;;;;;5053757;28;20029;-40
2022/05/22 14:45:38;;;;;;;3.55;2.78;;;;;;;;;;5053922;28;20025;-39
2022/05/22 14:48:08;;;;;;;4.03;2.70;;;;;;;;;;5052819;28;20468;-40
2022/05/22 14:50:33;;;;;;;13.93;3.47;;;;;;;;;;5053735;28;20128;-39
2022/05/22 14:53:06;;;;;;;2.78;2.40;;;;;;;;;;5053341;28;20104;-39
2022/05/22 14:55:32;;;;;;;;;;;;;;;;;;5053891;28;20024;-40
2022/05/22 14:58:00;;;;;;;5.32;2.85;;;;;;;;;;5051894;28;19965;-39
2022/05/22 15:00:29;;;;;;;4.35;3.00;;;;;;;;;;5053270;28;20116;-39
2022/05/22 15:02:58;;;;;;;4.38;3.30;;;;;;;;;;5053109;28;20020;-40
2022/05/22 15:05:48;;;;;;;4.68;3.55;;;;;;;;;;5052730;28;20052;-40
2022/05/22 15:08:40;;;;;;;5.53;4.05;;;;;;;;;;5053063;28;20481;-42
2022/05/22 15:11:16;;;;;;;11.13;3.25;;;;;;;;;;5052821;28;20440;-39
2022/05/22 15:13:51;;;;;;;5.18;3.28;;;;;;;;;;5052959;28;20049;-39
2022/05/22 15:16:19;;;;;;;8.57;3.33;;;;;;;;;;5052882;28;20493;-40
2022/05/22 15:21:29;;;;;;;4.35;3.20;;;;;;;;;;5051586;28;20365;-40
2022/05/22 15:26:45;;;;;;;4.40;4.00;;;;;;;;;;5053404;28;20056;-40
2022/05/22 15:29:15;;;;;;;6.78;3.72;;;;;;;;;;5052884;28;20727;-39
2022/05/22 15:31:41;;;;;;;4.30;3.47;;;;;;;;;;5052666;28;20016;-40
2022/05/22 15:34:21;;;;;;;8.10;3.75;;;;;;;;;;5052950;28;20386;-39
2022/05/22 15:36:46;;;;;;;3.78;3.17;;;;;;;;;;5053043;28;20029;-41
2022/05/22 15:39:14;;;;;;;4.95;3.58;;;;;;;;;;5051342;28;20040;-40
2022/05/22 15:41:40;;;;;;;7.78;3.83;;;;;;;;;;5052471;28;20048;-39